sensor_id;sensor_type;location;lat;lon;timestamp;temperature;humidity
6379;DHT22;3222;48.858;10.128;2022-10-16T00:01:46;14.90;99.90
6379;DHT22;3222;48.858;10.128;2022-10-16T00:04:12;15.00;99.90
6379;DHT22;3222;48.858;10.128;2022-10-16T00:06:38;14.90;99.90
6379;DHT22;3222;48.858;10.128;2022-10-16T00:09:05;15.10;99.90
6379;DHT22;3222;48.858;10.128;2022-10-16T00:11:33;15.00;99.90
6379;DHT22;3222;48.858;10.128;2022-10-16T00:14:04;15.00;99.90
6379;DHT22;3222;48.858;10.128;2022-10-16T00:16:30;15.00;99.90
6379;DHT22;3222;48.858;10.128;2022-10-16T00:18:57;15.00;99.90
6379;DHT22;3222;48.858;10.128;2022-10-16T00:21:25;14.90;99.90
6379;DHT22;3222;48.858;10.128;2022-10-16T00:23:54;14.90;99.90
6379;DHT22;3222;48.858;10.128;2022-10-16T00:26:20;15.00;99.90
6379;DHT22;3222;48.858;10.128;2022-10-16T00:28:47;14.90;99.90
6379;DHT22;3222;48.858;10.128;2022-10-16T00:31:14;14.80;99.90
6379;DHT22;3222;48.858;10.128;2022-10-16T00:33:40;14.90;99.90
6379;DHT22;3222;48.858;10.128;2022-10-16T00:36:07;14.90;99.90
6379;DHT22;3222;48.858;10.128;2022-10-16T00:38:33;14.80;99.90
6379;DHT22;3222;48.858;10.128;2022-10-16T00:41:00;14.90;99.90
6379;DHT22;3222;48.858;10.128;2022-10-16T00:46:10;15.00;99.90
6379;DHT22;3222;48.858;10.128;2022-10-16T00:48:37;15.10;99.90
6379;DHT22;3222;48.858;10.128;2022-10-16T00:51:04;15.40;99.90
6379;DHT22;3222;48.858;10.128;2022-10-16T00:53:31;15.50;99.90
6379;DHT22;3222;48.858;10.128;2022-10-16T00:55:57;15.40;99.90
6379;DHT22;3222;48.858;10.128;2022-10-16T00:58:23;15.20;99.90
6379;DHT22;3222;48.858;10.128;2022-10-16T01:00:48;15.10;99.90
6379;DHT22;3222;48.858;10.128;2022-10-16T01:03:32;15.00;99.90
6379;DHT22;3222;48.858;10.128;2022-10-16T01:11:57;15.10;99.90
6379;DHT22;3222;48.858;10.128;2022-10-16T01:17:17;15.10;99.90
6379;DHT22;3222;48.858;10.128;2022-10-16T01:28:58;15.00;99.90
6379;DHT22;3222;48.858;10.128;2022-10-16T01:31:31;15.30;99.90
6379;DHT22;3222;48.858;10.128;2022-10-16T01:34:03;15.30;99.90
6379;DHT22;3222;48.858;10.128;2022-10-16T01:36:53;15.20;99.90
6379;DHT22;3222;48.858;10.128;2022-10-16T01:39:24;15.10;99.90
6379;DHT22;3222;48.858;10.128;2022-10-16T01:41:57;15.10;99.90
6379;DHT22;3222;48.858;10.128;2022-10-16T01:44:33;15.10;99.90
6379;DHT22;3222;48.858;10.128;2022-10-16T01:47:00;15.20;99.90
6379;DHT22;3222;48.858;10.128;2022-10-16T01:49:30;15.10;99.90
6379;DHT22;3222;48.858;10.128;2022-10-16T01:51:59;15.10;99.90
6379;DHT22;3222;48.858;10.128;2022-10-16T01:54:27;15.20;99.90
6379;DHT22;3222;48.858;10.128;2022-10-16T01:56:56;15.00;99.90
6379;DHT22;3222;48.858;10.128;2022-10-16T01:59:25;15.00;99.90
6379;DHT22;3222;48.858;10.128;2022-10-16T02:01:59;15.00;99.90
6379;DHT22;3222;48.858;10.128;2022-10-16T02:04:29;15.00;99.90
6379;DHT22;3222;48.858;10.128;2022-10-16T02:06:57;15.10;99.90
6379;DHT22;3222;48.858;10.128;2022-10-16T02:09:22;15.00;99.90
6379;DHT22;3222;48.858;10.128;2022-10-16T02:11:49;15.00;99.90
6379;DHT22;3222;48.858;10.128;2022-10-16T02:14:16;15.10;99.90
6379;DHT22;3222;48.858;10.128;2022-10-16T02:16:45;15.00;99.90
6379;DHT22;3222;48.858;10.128;2022-10-16T02:19:15;14.90;99.90
6379;DHT22;3222;48.858;10.128;2022-10-16T02:21:59;14.90;99.90
6379;DHT22;3222;48.858;10.128;2022-10-16T02:25:03;14.80;99.90
6379;DHT22;3222;48.858;10.128;2022-10-16T02:27:34;14.80;99.90
6379;DHT22;3222;48.858;10.128;2022-10-16T02:30:39;14.80;99.90
6379;DHT22;3222;48.858;10.128;2022-10-16T02:33:09;14.70;99.90
6379;DHT22;3222;48.858;10.128;2022-10-16T02:35:38;14.80;99.90
6379;DHT22;3222;48.858;10.128;2022-10-16T02:38:04;14.70;99.90
6379;DHT22;3222;48.858;10.128;2022-10-16T02:40:31;14.70;99.90
6379;DHT22;3222;48.858;10.128;2022-10-16T02:42:57;14.60;99.90
6379;DHT22;3222;48.858;10.128;2022-10-16T02:45:23;14.60;99.90
6379;DHT22;3222;48.858;10.128;2022-10-16T02:47:49;14.60;99.90
6379;DHT22;3222;48.858;10.128;2022-10-16T02:50:15;14.60;99.90
6379;DHT22;3222;48.858;10.128;2022-10-16T02:52:41;14.60;99.90
6379;DHT22;3222;48.858;10.128;2022-10-16T02:55:07;14.80;99.90
6379;DHT22;3222;48.858;10.128;2022-10-16T02:57:32;14.70;99.90
6379;DHT22;3222;48.858;10.128;2022-10-16T02:59:58;14.70;99.90
6379;DHT22;3222;48.858;10.128;2022-10-16T03:02:25;14.70;99.90
6379;DHT22;3222;48.858;10.128;2022-10-16T03:04:50;14.70;99.90
6379;DHT22;3222;48.858;10.128;2022-10-16T03:07:16;14.80;99.90
6379;DHT22;3222;48.858;10.128;2022-10-16T03:09:42;14.70;99.90
6379;DHT22;3222;48.858;10.128;2022-10-16T03:12:08;14.70;99.90
6379;DHT22;3222;48.858;10.128;2022-10-16T03:14:33;14.90;99.90
6379;DHT22;3222;48.858;10.128;2022-10-16T03:16:59;15.00;99.90
6379;DHT22;3222;48.858;10.128;2022-10-16T03:19:25;15.00;99.90
6379;DHT22;3222;48.858;10.128;2022-10-16T03:21:51;15.20;99.90
6379;DHT22;3222;48.858;10.128;2022-10-16T03:24:16;15.10;99.90
6379;DHT22;3222;48.858;10.128;2022-10-16T03:26:42;15.00;99.90
6379;DHT22;3222;48.858;10.128;2022-10-16T03:29:08;14.90;99.90
6379;DHT22;3222;48.858;10.128;2022-10-16T03:31:34;14.80;99.90
6379;DHT22;3222;48.858;10.128;2022-10-16T03:33:59;14.80;99.90
6379;DHT22;3222;48.858;10.128;2022-10-16T03:36:25;14.80;99.90
6379;DHT22;3222;48.858;10.128;2022-10-16T03:38:51;14.70;99.90
6379;DHT22;3222;48.858;10.128;2022-10-16T03:41:16;14.70;99.90
6379;DHT22;3222;48.858;10.128;2022-10-16T03:43:42;14.60;99.90
6379;DHT22;3222;48.858;10.128;2022-10-16T03:46:08;14.70;99.90
6379;DHT22;3222;48.858;10.128;2022-10-16T03:48:33;14.70;99.90
6379;DHT22;3222;48.858;10.128;2022-10-16T03:50:59;14.70;99.90
6379;DHT22;3222;48.858;10.128;2022-10-16T03:53:25;14.90;99.90
6379;DHT22;3222;48.858;10.128;2022-10-16T03:55:51;15.00;99.90
6379;DHT22;3222;48.858;10.128;2022-10-16T03:58:16;15.10;99.90
6379;DHT22;3222;48.858;10.128;2022-10-16T04:00:43;15.00;99.90
6379;DHT22;3222;48.858;10.128;2022-10-16T04:03:10;15.20;99.90
6379;DHT22;3222;48.858;10.128;2022-10-16T04:05:35;15.00;99.90
6379;DHT22;3222;48.858;10.128;2022-10-16T04:08:02;14.90;99.90
6379;DHT22;3222;48.858;10.128;2022-10-16T04:10:27;15.20;99.90
6379;DHT22;3222;48.858;10.128;2022-10-16T04:12:53;15.30;99.90
6379;DHT22;3222;48.858;10.128;2022-10-16T04:15:21;15.10;99.90
6379;DHT22;3222;48.858;10.128;2022-10-16T04:17:47;15.20;99.90
6379;DHT22;3222;48.858;10.128;2022-10-16T04:20:13;15.20;99.90
6379;DHT22;3222;48.858;10.128;2022-10-16T04:22:39;15.10;99.90
6379;DHT22;3222;48.858;10.128;2022-10-16T04:25:05;15.00;99.90
6379;DHT22;3222;48.858;10.128;2022-10-16T04:27:31;14.90;99.90
6379;DHT22;3222;48.858;10.128;2022-10-16T04:29:57;14.70;99.90
6379;DHT22;3222;48.858;10.128;2022-10-16T04:32:23;14.80;99.90
6379;DHT22;3222;48.858;10.128;2022-10-16T04:34:49;14.70;99.90
6379;DHT22;3222;48.858;10.128;2022-10-16T04:37:14;14.80;99.90
6379;DHT22;3222;48.858;10.128;2022-10-16T04:39:40;14.80;99.90
6379;DHT22;3222;48.858;10.128;2022-10-16T04:42:05;14.90;99.90
6379;DHT22;3222;48.858;10.128;2022-10-16T04:44:31;15.00;99.90
6379;DHT22;3222;48.858;10.128;2022-10-16T04:46:57;15.00;99.90
6379;DHT22;3222;48.858;10.128;2022-10-16T04:49:22;15.20;99.90
6379;DHT22;3222;48.858;10.128;2022-10-16T04:51:48;15.20;99.90
6379;DHT22;3222;48.858;10.128;2022-10-16T04:54:14;15.00;99.90
6379;DHT22;3222;48.858;10.128;2022-10-16T04:56:40;14.90;99.90
6379;DHT22;3222;48.858;10.128;2022-10-16T04:59:13;14.90;99.90
6379;DHT22;3222;48.858;10.128;2022-10-16T05:01:38;15.00;99.90
6379;DHT22;3222;48.858;10.128;2022-10-16T05:04:04;14.80;99.90
6379;DHT22;3222;48.858;10.128;2022-10-16T05:06:30;14.80;99.90
6379;DHT22;3222;48.858;10.128;2022-10-16T05:08:55;15.00;99.90
6379;DHT22;3222;48.858;10.128;2022-10-16T05:11:21;15.20;99.90
6379;DHT22;3222;48.858;10.128;2022-10-16T05:13:46;15.20;99.90
6379;DHT22;3222;48.858;10.128;2022-10-16T05:16:12;15.10;99.90
6379;DHT22;3222;48.858;10.128;2022-10-16T05:18:38;15.10;99.90
6379;DHT22;3222;48.858;10.128;2022-10-16T05:21:04;15.10;99.90
6379;DHT22;3222;48.858;10.128;2022-10-16T05:23:29;15.00;99.90
6379;DHT22;3222;48.858;10.128;2022-10-16T05:25:56;15.00;99.90
6379;DHT22;3222;48.858;10.128;2022-10-16T05:28:24;15.00;99.90
6379;DHT22;3222;48.858;10.128;2022-10-16T05:30:50;15.00;99.90
6379;DHT22;3222;48.858;10.128;2022-10-16T05:33:16;15.00;99.90
6379;DHT22;3222;48.858;10.128;2022-10-16T05:35:42;15.10;99.90
6379;DHT22;3222;48.858;10.128;2022-10-16T05:38:07;15.10;99.90
6379;DHT22;3222;48.858;10.128;2022-10-16T05:40:33;14.90;99.90
6379;DHT22;3222;48.858;10.128;2022-10-16T05:42:59;14.80;99.90
6379;DHT22;3222;48.858;10.128;2022-10-16T05:45:24;14.90;99.90
6379;DHT22;3222;48.858;10.128;2022-10-16T05:47:50;15.10;99.90
6379;DHT22;3222;48.858;10.128;2022-10-16T05:50:16;15.10;99.90
6379;DHT22;3222;48.858;10.128;2022-10-16T05:52:42;15.00;99.90
6379;DHT22;3222;48.858;10.128;2022-10-16T05:55:08;15.00;99.90
6379;DHT22;3222;48.858;10.128;2022-10-16T05:57:34;14.90;99.90
6379;DHT22;3222;48.858;10.128;2022-10-16T05:59:59;14.70;99.90
6379;DHT22;3222;48.858;10.128;2022-10-16T06:02:25;14.60;99.90
6379;DHT22;3222;48.858;10.128;2022-10-16T06:04:54;14.60;99.90
6379;DHT22;3222;48.858;10.128;2022-10-16T06:07:20;14.60;99.90
6379;DHT22;3222;48.858;10.128;2022-10-16T06:09:50;14.60;99.90
6379;DHT22;3222;48.858;10.128;2022-10-16T06:12:16;14.60;99.90
6379;DHT22;3222;48.858;10.128;2022-10-16T06:14:41;14.60;99.90
6379;DHT22;3222;48.858;10.128;2022-10-16T06:17:07;14.50;99.90
6379;DHT22;3222;48.858;10.128;2022-10-16T06:19:33;14.60;99.90
6379;DHT22;3222;48.858;10.128;2022-10-16T06:21:58;14.70;99.90
6379;DHT22;3222;48.858;10.128;2022-10-16T06:24:25;14.60;99.90
6379;DHT22;3222;48.858;10.128;2022-10-16T06:26:51;14.60;99.90
6379;DHT22;3222;48.858;10.128;2022-10-16T06:29:16;14.50;99.90
6379;DHT22;3222;48.858;10.128;2022-10-16T06:31:42;14.60;99.90
6379;DHT22;3222;48.858;10.128;2022-10-16T06:34:09;14.60;99.90
6379;DHT22;3222;48.858;10.128;2022-10-16T06:36:37;14.60;99.90
6379;DHT22;3222;48.858;10.128;2022-10-16T06:39:04;14.60;99.90
6379;DHT22;3222;48.858;10.128;2022-10-16T06:41:30;14.60;99.90
6379;DHT22;3222;48.858;10.128;2022-10-16T06:44:01;14.60;99.90
6379;DHT22;3222;48.858;10.128;2022-10-16T06:46:30;14.70;99.90
6379;DHT22;3222;48.858;10.128;2022-10-16T06:48:56;14.80;99.90
6379;DHT22;3222;48.858;10.128;2022-10-16T06:51:23;14.70;99.90
6379;DHT22;3222;48.858;10.128;2022-10-16T06:53:51;14.60;99.90
6379;DHT22;3222;48.858;10.128;2022-10-16T06:58:44;14.70;99.90
6379;DHT22;3222;48.858;10.128;2022-10-16T07:01:11;14.80;99.90
6379;DHT22;3222;48.858;10.128;2022-10-16T07:03:38;14.70;99.90
6379;DHT22;3222;48.858;10.128;2022-10-16T07:06:05;14.70;99.90
6379;DHT22;3222;48.858;10.128;2022-10-16T07:08:36;14.70;99.90
6379;DHT22;3222;48.858;10.128;2022-10-16T07:11:06;14.60;99.90
6379;DHT22;3222;48.858;10.128;2022-10-16T07:13:40;14.70;99.90
6379;DHT22;3222;48.858;10.128;2022-10-16T07:16:17;14.60;99.90
6379;DHT22;3222;48.858;10.128;2022-10-16T07:18:44;14.70;99.90
6379;DHT22;3222;48.858;10.128;2022-10-16T07:21:16;14.80;99.90
6379;DHT22;3222;48.858;10.128;2022-10-16T07:23:43;14.80;99.90
6379;DHT22;3222;48.858;10.128;2022-10-16T07:26:09;14.80;99.90
6379;DHT22;3222;48.858;10.128;2022-10-16T07:28:36;14.80;99.90
6379;DHT22;3222;48.858;10.128;2022-10-16T07:31:05;14.80;99.90
6379;DHT22;3222;48.858;10.128;2022-10-16T07:33:33;14.80;99.90
6379;DHT22;3222;48.858;10.128;2022-10-16T07:35:59;14.90;99.90
6379;DHT22;3222;48.858;10.128;2022-10-16T07:38:25;15.00;99.90
6379;DHT22;3222;48.858;10.128;2022-10-16T07:40:58;15.00;99.90
6379;DHT22;3222;48.858;10.128;2022-10-16T07:43:25;15.10;99.90
6379;DHT22;3222;48.858;10.128;2022-10-16T07:45:50;15.10;99.90
6379;DHT22;3222;48.858;10.128;2022-10-16T07:48:17;15.10;99.90
6379;DHT22;3222;48.858;10.128;2022-10-16T07:50:44;15.10;99.90
6379;DHT22;3222;48.858;10.128;2022-10-16T07:53:10;15.10;99.90
6379;DHT22;3222;48.858;10.128;2022-10-16T07:55:37;15.10;99.90
6379;DHT22;3222;48.858;10.128;2022-10-16T07:58:03;15.10;99.90
6379;DHT22;3222;48.858;10.128;2022-10-16T08:00:29;15.20;99.90
6379;DHT22;3222;48.858;10.128;2022-10-16T08:02:59;15.30;99.90
6379;DHT22;3222;48.858;10.128;2022-10-16T08:05:29;15.20;99.90
6379;DHT22;3222;48.858;10.128;2022-10-16T08:07:56;15.20;99.90
6379;DHT22;3222;48.858;10.128;2022-10-16T08:10:24;15.20;99.90
6379;DHT22;3222;48.858;10.128;2022-10-16T08:12:50;15.20;99.90
6379;DHT22;3222;48.858;10.128;2022-10-16T08:15:17;15.20;99.90
6379;DHT22;3222;48.858;10.128;2022-10-16T08:17:42;15.30;99.90
6379;DHT22;3222;48.858;10.128;2022-10-16T08:20:09;15.30;99.90
6379;DHT22;3222;48.858;10.128;2022-10-16T08:22:34;15.30;99.90
6379;DHT22;3222;48.858;10.128;2022-10-16T08:25:00;15.40;99.90
6379;DHT22;3222;48.858;10.128;2022-10-16T08:27:33;15.60;99.90
6379;DHT22;3222;48.858;10.128;2022-10-16T08:29:59;15.80;99.90
6379;DHT22;3222;48.858;10.128;2022-10-16T08:32:24;15.80;99.90
6379;DHT22;3222;48.858;10.128;2022-10-16T08:34:50;15.80;99.90
6379;DHT22;3222;48.858;10.128;2022-10-16T08:37:16;15.80;99.90
6379;DHT22;3222;48.858;10.128;2022-10-16T08:39:41;15.70;99.90
6379;DHT22;3222;48.858;10.128;2022-10-16T08:50:30;15.60;99.90
6379;DHT22;3222;48.858;10.128;2022-10-16T08:52:57;15.70;99.90
6379;DHT22;3222;48.858;10.128;2022-10-16T08:58:15;15.60;99.90
6379;DHT22;3222;48.858;10.128;2022-10-16T09:00:43;15.70;99.90
6379;DHT22;3222;48.858;10.128;2022-10-16T09:11:48;15.70;99.90
6379;DHT22;3222;48.858;10.128;2022-10-16T09:17:16;16.00;99.90
6379;DHT22;3222;48.858;10.128;2022-10-16T09:20:38;16.00;99.90
6379;DHT22;3222;48.858;10.128;2022-10-16T09:22:35;15.90;99.90
6379;DHT22;3222;48.858;10.128;2022-10-16T09:25:11;16.10;99.90
6379;DHT22;3222;48.858;10.128;2022-10-16T09:27:37;16.10;99.90
6379;DHT22;3222;48.858;10.128;2022-10-16T09:30:14;16.20;99.90
6379;DHT22;3222;48.858;10.128;2022-10-16T09:32:42;16.10;99.90
6379;DHT22;3222;48.858;10.128;2022-10-16T09:35:17;16.10;99.90
6379;DHT22;3222;48.858;10.128;2022-10-16T09:37:47;16.20;99.90
6379;DHT22;3222;48.858;10.128;2022-10-16T09:40:28;16.30;99.90
6379;DHT22;3222;48.858;10.128;2022-10-16T09:45:43;16.20;99.90
6379;DHT22;3222;48.858;10.128;2022-10-16T09:48:19;16.10;99.90
6379;DHT22;3222;48.858;10.128;2022-10-16T09:50:57;16.10;99.90
6379;DHT22;3222;48.858;10.128;2022-10-16T09:53:23;16.20;99.90
6379;DHT22;3222;48.858;10.128;2022-10-16T09:55:53;16.20;99.90
6379;DHT22;3222;48.858;10.128;2022-10-16T09:58:23;16.30;99.90
6379;DHT22;3222;48.858;10.128;2022-10-16T10:00:52;16.30;99.90
6379;DHT22;3222;48.858;10.128;2022-10-16T10:03:35;16.20;99.90
6379;DHT22;3222;48.858;10.128;2022-10-16T10:08:57;16.20;99.90
6379;DHT22;3222;48.858;10.128;2022-10-16T10:14:17;16.30;99.90
6379;DHT22;3222;48.858;10.128;2022-10-16T10:16:44;16.30;99.90
6379;DHT22;3222;48.858;10.128;2022-10-16T10:19:18;16.40;99.90
6379;DHT22;3222;48.858;10.128;2022-10-16T10:21:44;16.50;99.90
6379;DHT22;3222;48.858;10.128;2022-10-16T10:24:15;16.60;99.90
6379;DHT22;3222;48.858;10.128;2022-10-16T10:27:08;16.60;99.90
6379;DHT22;3222;48.858;10.128;2022-10-16T10:29:43;16.50;99.90
6379;DHT22;3222;48.858;10.128;2022-10-16T10:32:36;16.60;99.90
6379;DHT22;3222;48.858;10.128;2022-10-16T10:35:14;16.60;99.90
6379;DHT22;3222;48.858;10.128;2022-10-16T10:45:52;16.70;99.90
6379;DHT22;3222;48.858;10.128;2022-10-16T10:48:44;16.80;99.90
6379;DHT22;3222;48.858;10.128;2022-10-16T10:51:22;16.70;99.90
6379;DHT22;3222;48.858;10.128;2022-10-16T10:57:00;16.80;99.90
6379;DHT22;3222;48.858;10.128;2022-10-16T11:02:59;16.70;99.90
6379;DHT22;3222;48.858;10.128;2022-10-16T11:11:02;17.10;99.90
6379;DHT22;3222;48.858;10.128;2022-10-16T11:16:31;17.30;99.90
6379;DHT22;3222;48.858;10.128;2022-10-16T11:19:22;17.40;99.90
6379;DHT22;3222;48.858;10.128;2022-10-16T11:21:56;17.50;99.90
6379;DHT22;3222;48.858;10.128;2022-10-16T11:27:09;17.40;99.90
6379;DHT22;3222;48.858;10.128;2022-10-16T11:29:46;17.40;99.90
6379;DHT22;3222;48.858;10.128;2022-10-16T11:35:17;17.50;99.90
6379;DHT22;3222;48.858;10.128;2022-10-16T11:37:46;17.60;99.90
6379;DHT22;3222;48.858;10.128;2022-10-16T11:40:24;17.80;99.90
6379;DHT22;3222;48.858;10.128;2022-10-16T11:43:17;17.90;99.90
6379;DHT22;3222;48.858;10.128;2022-10-16T11:45:52;17.80;99.90
6379;DHT22;3222;48.858;10.128;2022-10-16T11:50:57;17.90;99.90
6379;DHT22;3222;48.858;10.128;2022-10-16T11:55:52;18.00;99.90
6379;DHT22;3222;48.858;10.128;2022-10-16T11:58:27;18.10;99.90
6379;DHT22;3222;48.858;10.128;2022-10-16T12:03:58;18.30;99.90
6379;DHT22;3222;48.858;10.128;2022-10-16T12:08:59;18.40;99.90
6379;DHT22;3222;48.858;10.128;2022-10-16T12:16:52;18.50;99.90
6379;DHT22;3222;48.858;10.128;2022-10-16T12:19:20;18.70;99.90
6379;DHT22;3222;48.858;10.128;2022-10-16T12:21:46;18.70;99.90
6379;DHT22;3222;48.858;10.128;2022-10-16T12:24:30;18.60;99.90
6379;DHT22;3222;48.858;10.128;2022-10-16T12:26:57;18.70;99.90
6379;DHT22;3222;48.858;10.128;2022-10-16T12:29:31;18.70;99.90
6379;DHT22;3222;48.858;10.128;2022-10-16T12:31:58;18.70;99.90
6379;DHT22;3222;48.858;10.128;2022-10-16T12:36:54;18.80;99.90
6379;DHT22;3222;48.858;10.128;2022-10-16T12:39:23;18.80;99.90
6379;DHT22;3222;48.858;10.128;2022-10-16T12:42:01;18.90;99.90
6379;DHT22;3222;48.858;10.128;2022-10-16T12:44:32;18.90;99.90
6379;DHT22;3222;48.858;10.128;2022-10-16T12:46:58;19.10;99.90
6379;DHT22;3222;48.858;10.128;2022-10-16T12:49:36;19.10;99.90
6379;DHT22;3222;48.858;10.128;2022-10-16T12:52:03;19.00;99.90
6379;DHT22;3222;48.858;10.128;2022-10-16T12:54:31;19.00;99.90
6379;DHT22;3222;48.858;10.128;2022-10-16T12:59:53;19.20;99.90
6379;DHT22;3222;48.858;10.128;2022-10-16T13:10:27;19.50;99.90
6379;DHT22;3222;48.858;10.128;2022-10-16T13:18:29;19.80;99.90
6379;DHT22;3222;48.858;10.128;2022-10-16T13:23:58;19.80;99.90
6379;DHT22;3222;48.858;10.128;2022-10-16T13:26:31;19.60;99.90
6379;DHT22;3222;48.858;10.128;2022-10-16T13:29:00;19.70;99.90
6379;DHT22;3222;48.858;10.128;2022-10-16T13:31:28;19.50;99.90
6379;DHT22;3222;48.858;10.128;2022-10-16T13:33:56;19.50;99.90
6379;DHT22;3222;48.858;10.128;2022-10-16T13:36:30;19.40;99.90
6379;DHT22;3222;48.858;10.128;2022-10-16T13:39:06;19.40;99.90
6379;DHT22;3222;48.858;10.128;2022-10-16T13:41:32;19.30;99.90
6379;DHT22;3222;48.858;10.128;2022-10-16T13:43:58;19.30;99.90
6379;DHT22;3222;48.858;10.128;2022-10-16T13:46:25;19.20;99.90
6379;DHT22;3222;48.858;10.128;2022-10-16T13:49:10;19.20;99.90
6379;DHT22;3222;48.858;10.128;2022-10-16T13:51:37;19.10;99.90
6379;DHT22;3222;48.858;10.128;2022-10-16T13:54:02;19.10;99.90
6379;DHT22;3222;48.858;10.128;2022-10-16T13:56:30;19.10;99.90
6379;DHT22;3222;48.858;10.128;2022-10-16T13:59:04;19.00;99.90
6379;DHT22;3222;48.858;10.128;2022-10-16T14:01:40;19.10;99.90
6379;DHT22;3222;48.858;10.128;2022-10-16T14:04:11;19.00;99.90
6379;DHT22;3222;48.858;10.128;2022-10-16T14:06:42;18.90;99.90
6379;DHT22;3222;48.858;10.128;2022-10-16T14:09:14;18.90;99.90
6379;DHT22;3222;48.858;10.128;2022-10-16T14:11:49;18.90;99.90
6379;DHT22;3222;48.858;10.128;2022-10-16T14:14:18;18.80;99.90
6379;DHT22;3222;48.858;10.128;2022-10-16T14:16:44;18.90;99.90
6379;DHT22;3222;48.858;10.128;2022-10-16T14:19:24;18.90;99.90
6379;DHT22;3222;48.858;10.128;2022-10-16T14:21:51;18.90;99.90
6379;DHT22;3222;48.858;10.128;2022-10-16T14:24:34;19.00;99.90
6379;DHT22;3222;48.858;10.128;2022-10-16T14:27:01;19.20;99.90
6379;DHT22;3222;48.858;10.128;2022-10-16T14:29:28;19.20;99.90
6379;DHT22;3222;48.858;10.128;2022-10-16T14:32:04;19.10;99.90
6379;DHT22;3222;48.858;10.128;2022-10-16T14:34:32;19.10;99.90
6379;DHT22;3222;48.858;10.128;2022-10-16T14:37:14;19.00;99.90
6379;DHT22;3222;48.858;10.128;2022-10-16T14:39:49;19.00;99.90
6379;DHT22;3222;48.858;10.128;2022-10-16T14:42:18;19.00;99.90
6379;DHT22;3222;48.858;10.128;2022-10-16T14:44:45;18.90;99.90
6379;DHT22;3222;48.858;10.128;2022-10-16T14:47:16;18.90;99.90
6379;DHT22;3222;48.858;10.128;2022-10-16T14:49:47;18.80;99.90
6379;DHT22;3222;48.858;10.128;2022-10-16T14:52:14;18.80;99.90
6379;DHT22;3222;48.858;10.128;2022-10-16T14:54:40;18.80;99.90
6379;DHT22;3222;48.858;10.128;2022-10-16T14:57:19;18.80;99.90
6379;DHT22;3222;48.858;10.128;2022-10-16T14:59:46;18.80;99.90
6379;DHT22;3222;48.858;10.128;2022-10-16T15:04:41;18.70;99.90
6379;DHT22;3222;48.858;10.128;2022-10-16T15:07:07;18.80;99.90
6379;DHT22;3222;48.858;10.128;2022-10-16T15:09:33;18.80;99.90
6379;DHT22;3222;48.858;10.128;2022-10-16T15:11:59;18.80;99.90
6379;DHT22;3222;48.858;10.128;2022-10-16T15:14:24;18.90;99.90
6379;DHT22;3222;48.858;10.128;2022-10-16T15:16:50;18.90;99.90
6379;DHT22;3222;48.858;10.128;2022-10-16T15:19:16;18.90;99.90
6379;DHT22;3222;48.858;10.128;2022-10-16T15:21:42;18.90;99.90
6379;DHT22;3222;48.858;10.128;2022-10-16T15:24:12;19.10;99.90
6379;DHT22;3222;48.858;10.128;2022-10-16T15:26:38;19.20;99.90
6379;DHT22;3222;48.858;10.128;2022-10-16T15:29:04;19.20;99.90
6379;DHT22;3222;48.858;10.128;2022-10-16T15:31:30;19.20;99.90
6379;DHT22;3222;48.858;10.128;2022-10-16T15:33:56;19.20;99.90
6379;DHT22;3222;48.858;10.128;2022-10-16T15:36:28;19.20;99.90
6379;DHT22;3222;48.858;10.128;2022-10-16T15:38:55;19.20;99.90
6379;DHT22;3222;48.858;10.128;2022-10-16T15:41:21;19.20;99.90
6379;DHT22;3222;48.858;10.128;2022-10-16T15:43:48;19.30;99.90
6379;DHT22;3222;48.858;10.128;2022-10-16T15:46:21;19.30;99.90
6379;DHT22;3222;48.858;10.128;2022-10-16T15:48:48;19.30;99.90
6379;DHT22;3222;48.858;10.128;2022-10-16T15:51:15;19.20;99.90
6379;DHT22;3222;48.858;10.128;2022-10-16T15:53:41;19.30;99.90
6379;DHT22;3222;48.858;10.128;2022-10-16T15:56:08;19.30;99.90
6379;DHT22;3222;48.858;10.128;2022-10-16T15:58:34;19.20;99.90
6379;DHT22;3222;48.858;10.128;2022-10-16T16:01:01;19.20;99.90
6379;DHT22;3222;48.858;10.128;2022-10-16T16:03:28;19.10;99.90
6379;DHT22;3222;48.858;10.128;2022-10-16T16:05:54;19.10;99.90
6379;DHT22;3222;48.858;10.128;2022-10-16T16:08:20;19.10;99.90
6379;DHT22;3222;48.858;10.128;2022-10-16T16:10:46;19.10;99.90
6379;DHT22;3222;48.858;10.128;2022-10-16T16:13:22;18.90;99.90
6379;DHT22;3222;48.858;10.128;2022-10-16T16:15:47;18.70;99.90
6379;DHT22;3222;48.858;10.128;2022-10-16T16:18:13;18.70;99.90
6379;DHT22;3222;48.858;10.128;2022-10-16T16:20:38;18.70;99.90
6379;DHT22;3222;48.858;10.128;2022-10-16T16:23:04;18.80;99.90
6379;DHT22;3222;48.858;10.128;2022-10-16T16:25:30;18.70;99.90
6379;DHT22;3222;48.858;10.128;2022-10-16T16:27:56;18.80;99.90
6379;DHT22;3222;48.858;10.128;2022-10-16T16:30:21;18.60;99.90
6379;DHT22;3222;48.858;10.128;2022-10-16T16:32:47;18.70;99.90
6379;DHT22;3222;48.858;10.128;2022-10-16T16:35:13;18.70;99.90
6379;DHT22;3222;48.858;10.128;2022-10-16T16:37:38;18.70;99.90
6379;DHT22;3222;48.858;10.128;2022-10-16T16:40:04;18.50;99.90
6379;DHT22;3222;48.858;10.128;2022-10-16T16:42:30;18.70;99.90
6379;DHT22;3222;48.858;10.128;2022-10-16T16:44:56;18.80;99.90
6379;DHT22;3222;48.858;10.128;2022-10-16T16:47:22;18.80;99.90
6379;DHT22;3222;48.858;10.128;2022-10-16T16:49:47;18.80;99.90
6379;DHT22;3222;48.858;10.128;2022-10-16T16:52:13;18.80;99.90
6379;DHT22;3222;48.858;10.128;2022-10-16T16:54:39;18.80;99.90
6379;DHT22;3222;48.858;10.128;2022-10-16T16:57:05;18.80;99.90
6379;DHT22;3222;48.858;10.128;2022-10-16T16:59:30;18.80;99.90
6379;DHT22;3222;48.858;10.128;2022-10-16T17:01:58;18.70;99.90
6379;DHT22;3222;48.858;10.128;2022-10-16T17:04:25;18.70;99.90
6379;DHT22;3222;48.858;10.128;2022-10-16T17:06:53;18.70;99.90
6379;DHT22;3222;48.858;10.128;2022-10-16T17:09:20;18.60;99.90
6379;DHT22;3222;48.858;10.128;2022-10-16T17:11:46;18.70;99.90
6379;DHT22;3222;48.858;10.128;2022-10-16T17:14:14;18.60;99.90
6379;DHT22;3222;48.858;10.128;2022-10-16T17:16:40;18.60;99.90
6379;DHT22;3222;48.858;10.128;2022-10-16T17:19:14;18.60;99.90
6379;DHT22;3222;48.858;10.128;2022-10-16T17:21:40;18.60;99.90
6379;DHT22;3222;48.858;10.128;2022-10-16T17:24:06;18.60;99.90
6379;DHT22;3222;48.858;10.128;2022-10-16T17:26:32;18.60;99.90
6379;DHT22;3222;48.858;10.128;2022-10-16T17:28:59;18.60;99.90
6379;DHT22;3222;48.858;10.128;2022-10-16T17:31:28;18.60;99.90
6379;DHT22;3222;48.858;10.128;2022-10-16T17:33:54;18.60;99.90
6379;DHT22;3222;48.858;10.128;2022-10-16T17:36:21;18.60;99.90
6379;DHT22;3222;48.858;10.128;2022-10-16T17:38:47;18.50;99.90
6379;DHT22;3222;48.858;10.128;2022-10-16T17:41:21;18.50;99.90
6379;DHT22;3222;48.858;10.128;2022-10-16T17:43:48;18.50;99.90
6379;DHT22;3222;48.858;10.128;2022-10-16T17:46:16;18.50;99.90
6379;DHT22;3222;48.858;10.128;2022-10-16T17:48:45;18.50;99.90
6379;DHT22;3222;48.858;10.128;2022-10-16T17:51:13;18.50;99.90
6379;DHT22;3222;48.858;10.128;2022-10-16T17:53:39;18.40;99.90
6379;DHT22;3222;48.858;10.128;2022-10-16T17:56:10;18.40;99.90
6379;DHT22;3222;48.858;10.128;2022-10-16T17:58:37;18.40;99.90